Time;durP1;ratioP1;P1;durP2;ratioP2;P2;SDS_P1;SDS_P2;PMS_P1;PMS_P2;Temp;Humidity;BMP_temperature;BMP_pressure;BME280_temperature;BME280_humidity;BME280_pressure;Samples;Min_cycle;Max_cycle;Signal;HPM_P1;HPM_P2
2023/01/28 17:04:47;;;;;;;;;;;;;;;1.53;66.09;99061.44;6022710;23;19925;-64
2023/01/28 17:07:12;;;;;;;;;;;;;;;1.53;65.08;99066.59;4925184;29;19926;-66
2023/01/28 17:09:37;;;;;;;;;;;;;;;1.52;64.44;99066.63;4931332;29;19919;-65
2023/01/28 17:12:03;;;;;;;;;;;;;;;1.47;64.37;99071.88;4928775;29;20401;-65
2023/01/28 17:14:28;;;;;;;;;;;;;;;1.50;65.39;99081.31;4931825;29;20378;-64
2023/01/28 17:16:53;;;;;;;;;;;;;;;1.50;64.57;99074.41;4912313;29;19930;-66
2023/01/28 17:19:18;;;;;;;;;;;;;;;1.47;64.65;99074.47;4910591;29;19923;-65
2023/01/28 17:21:43;;;;;;;;;;;;;;;1.38;63.93;99077.22;4918501;29;19946;-65
2023/01/28 17:24:09;;;;;;;;;;;;;;;1.39;65.01;99078.94;4913742;29;19962;-64
2023/01/28 17:26:35;;;;;;;;;;;;;;;1.40;65.11;99076.28;4913730;29;19962;-65
2023/01/28 17:29:00;;;;;;;;;;;;;;;1.42;64.56;99078.88;4915635;29;20279;-66
2023/01/28 17:31:25;;;;;;;;;;;;;;;1.46;65.00;99077.94;4917977;29;20454;-65
2023/01/28 17:33:54;;;;;;;;;;;;;;;1.46;64.60;99070.19;4912791;29;20371;-65
2023/01/28 17:36:19;;;;;;;;;;;;;;;1.47;64.58;99087.38;4917384;29;19915;-66
2023/01/28 17:38:44;;;;;;;;;;;;;;;1.53;65.28;99095.03;4910729;29;19931;-65
2023/01/28 17:41:10;;;;;;;;;;;;;;;1.58;65.27;99095.81;4908275;29;20283;-65
2023/01/28 17:43:35;;;;;;;;;;;;;;;1.44;64.34;99095.19;4916639;29;19919;-64
2023/01/28 17:46:00;;;;;;;;;;;;;;;1.29;63.99;99103.22;4915990;29;19926;-64
2023/01/28 17:48:25;;;;;;;;;;;;;;;1.30;64.50;99115.25;4913131;29;19923;-65
2023/01/28 17:50:57;;;;;;;;;;;;;;;1.18;65.17;99111.16;4914374;29;19981;-65
2023/01/28 17:53:22;;;;;;;;;;;;;;;1.16;65.28;99108.59;4917055;29;19923;-65
2023/01/28 17:55:47;;;;;;;;;;;;;;;1.15;65.14;99106.88;4900635;29;19919;-65
2023/01/28 17:58:12;;;;;;;;;;;;;;;1.22;66.03;99106.78;4908731;29;19955;-64
2023/01/28 18:00:38;;;;;;;;;;;;;;;1.31;66.26;99091.16;4906069;29;20372;-66
2023/01/28 18:03:03;;;;;;;;;;;;;;;1.34;65.30;99096.22;4919129;29;20395;-64
2023/01/28 18:05:28;;;;;;;;;;;;;;;1.33;65.19;99091.94;4916867;29;20524;-65
2023/01/28 18:07:53;;;;;;;;;;;;;;;1.37;65.63;99091.00;4917735;29;20379;-64
2023/01/28 18:10:18;;;;;;;;;;;;;;;1.37;64.19;99085.84;4913504;29;20438;-64
2023/01/28 18:12:44;;;;;;;;;;;;;;;1.36;65.90;99097.06;4903713;29;19947;-65
2023/01/28 18:15:09;;;;;;;;;;;;;;;1.35;65.55;99092.78;4908939;29;19923;-64
2023/01/28 18:17:34;;;;;;;;;;;;;;;1.37;64.64;99102.19;4914141;29;19927;-65
2023/01/28 18:20:00;;;;;;;;;;;;;;;1.39;65.40;99109.94;4920429;29;19946;-65
2023/01/28 18:22:25;;;;;;;;;;;;;;;1.37;64.49;99111.69;4910561;29;20401;-64
2023/01/28 18:24:50;;;;;;;;;;;;;;;1.39;65.21;99104.78;4913668;29;19993;-65
2023/01/28 18:27:16;;;;;;;;;;;;;;;1.40;65.33;99109.06;4910519;29;19926;-64
2023/01/28 18:29:41;;;;;;;;;;;;;;;1.43;64.92;99124.53;4913462;29;19943;-64
2023/01/28 18:32:06;;;;;;;;;;;;;;;1.37;64.21;99128.03;4913756;29;19915;-64
2023/01/28 18:34:32;;;;;;;;;;;;;;;1.39;65.11;99121.13;4914560;29;19934;-64
2023/01/28 18:36:58;;;;;;;;;;;;;;;1.39;65.01;99125.47;4902617;29;19974;-64
2023/01/28 18:39:24;;;;;;;;;;;;;;;1.38;64.01;99121.19;4914269;29;20006;-65
2023/01/28 18:41:53;;;;;;;;;;;;;;;1.27;63.63;99125.66;4912666;29;19974;-65
2023/01/28 18:44:18;;;;;;;;;;;;;;;1.15;63.83;99135.31;4906474;29;20272;-65
2023/01/28 18:46:44;;;;;;;;;;;;;;;0.87;64.42;99146.94;4910419;29;19919;-65
2023/01/28 18:49:09;;;;;;;;;;;;;;;1.00;65.48;99148.47;4915589;29;20326;-64
2023/01/28 18:51:34;;;;;;;;;;;;;;;0.96;64.14;99151.97;4910243;29;20276;-65
2023/01/28 18:54:00;;;;;;;;;;;;;;;0.97;65.21;99158.00;4912469;29;19998;-65
2023/01/28 18:56:26;;;;;;;;;;;;;;;0.85;64.06;99148.69;4914094;29;19919;-65
2023/01/28 18:58:55;;;;;;;;;;;;;;;0.93;65.61;99141.69;4914214;29;19931;-64
2023/01/28 19:01:20;;;;;;;;;;;;;;;0.80;64.28;99146.19;4907734;29;19916;-65
2023/01/28 19:03:45;;;;;;;;;;;;;;;0.72;64.32;99153.16;4912231;29;19919;-65
2023/01/28 19:06:11;;;;;;;;;;;;;;;0.77;65.60;99159.13;4911415;29;19919;-65
2023/01/28 19:08:37;;;;;;;;;;;;;;;0.82;64.69;99161.63;4913076;29;19922;-65
2023/01/28 19:11:02;;;;;;;;;;;;;;;0.88;65.12;99161.56;4913257;29;20006;-64
2023/01/28 19:13:27;;;;;;;;;;;;;;;0.95;65.57;99170.94;4912429;29;19922;-65
2023/01/28 19:15:53;;;;;;;;;;;;;;;0.99;65.14;99167.41;4910363;29;19965;-65
2023/01/28 19:18:18;;;;;;;;;;;;;;;1.03;64.21;99163.06;4909416;29;19926;-63
2023/01/28 19:20:43;;;;;;;;;;;;;;;0.90;63.69;99165.84;4913717;29;19919;-64
2023/01/28 19:23:10;;;;;;;;;;;;;;;0.78;63.11;99178.91;4908633;29;20010;-64
2023/01/28 19:25:35;;;;;;;;;;;;;;;0.83;64.61;99181.44;4909568;29;19919;-64
2023/01/28 19:28:01;;;;;;;;;;;;;;;0.80;65.04;99176.31;4912813;29;20481;-64
2023/01/28 19:30:26;;;;;;;;;;;;;;;0.66;63.64;99179.94;4915059;29;19970;-64
2023/01/28 19:32:52;;;;;;;;;;;;;;;0.66;63.82;99171.34;4913065;29;19930;-64
2023/01/28 19:35:18;;;;;;;;;;;;;;;0.62;64.13;99167.94;4912823;29;19919;-64
2023/01/28 19:37:43;;;;;;;;;;;;;;;0.69;65.07;99169.56;4913195;29;19931;-64
2023/01/28 19:40:10;;;;;;;;;;;;;;;0.69;64.96;99176.47;4913049;29;20400;-64
2023/01/28 19:42:35;;;;;;;;;;;;;;;0.61;63.96;99170.53;4914884;29;20006;-65
2023/01/28 19:45:00;;;;;;;;;;;;;;;0.61;63.84;99166.22;4914019;29;19919;-65
2023/01/28 19:47:26;;;;;;;;;;;;;;;0.54;64.56;99156.84;4912446;29;19966;-64
2023/01/28 19:49:52;;;;;;;;;;;;;;;0.66;65.24;99166.19;4913514;29;19923;-63
2023/01/28 19:52:17;;;;;;;;;;;;;;;0.64;63.79;99173.94;4912201;29;19925;-64
2023/01/28 19:54:42;;;;;;;;;;;;;;;0.71;65.87;99166.97;4911547;29;20394;-64
2023/01/28 19:57:07;;;;;;;;;;;;;;;0.82;66.57;99166.81;4913207;29;20376;-64
2023/01/28 19:59:33;;;;;;;;;;;;;;;0.91;66.61;99169.28;4913806;29;19919;-63
2023/01/28 20:01:58;;;;;;;;;;;;;;;0.94;66.42;99169.22;4912159;29;20778;-65
2023/01/28 20:04:23;;;;;;;;;;;;;;;1.00;65.80;99169.16;4914409;29;19915;-64
2023/01/28 20:06:49;;;;;;;;;;;;;;;1.03;66.27;99166.50;4910579;29;20074;-64
2023/01/28 20:09:14;;;;;;;;;;;;;;;1.09;66.21;99170.72;4908765;29;20054;-64
2023/01/28 20:11:39;;;;;;;;;;;;;;;1.11;66.65;99167.25;4911500;29;19997;-62
2023/01/28 20:14:05;;;;;;;;;;;;;;;1.13;64.98;99165.47;4913986;29;19919;-64
2023/01/28 20:16:31;;;;;;;;;;;;;;;1.15;64.19;99179.25;4907848;29;20006;-64
2023/01/28 20:18:57;;;;;;;;;;;;;;;1.13;63.95;99199.06;4913571;29;19923;-65
2023/01/28 20:21:22;;;;;;;;;;;;;;;1.08;64.37;99208.63;4910713;29;19923;-65
2023/01/28 20:23:48;;;;;;;;;;;;;;;1.13;65.46;99221.47;4912595;29;19919;-63
2023/01/28 20:26:13;;;;;;;;;;;;;;;1.05;62.91;99223.31;4909242;29;19926;-64
2023/01/28 20:28:38;;;;;;;;;;;;;;;0.91;62.21;99241.59;4908958;29;19923;-64
2023/01/28 20:31:04;;;;;;;;;;;;;;;0.78;62.66;99245.22;4911138;29;19927;-64
2023/01/28 20:33:29;;;;;;;;;;;;;;;0.57;64.31;99249.75;4909737;29;19930;-64
2023/01/28 20:36:04;;;;;;;;;;;;;;;0.64;65.19;99238.47;4913293;29;19997;-64
2023/01/28 20:38:29;;;;;;;;;;;;;;;0.57;63.27;99239.44;4913272;29;19920;-65
2023/01/28 20:40:55;;;;;;;;;;;;;;;0.48;63.54;99252.44;4907600;29;19926;-64
2023/01/28 20:43:20;;;;;;;;;;;;;;;0.35;63.30;99258.63;4909140;29;19919;-64
2023/01/28 20:45:45;;;;;;;;;;;;;;;0.04;63.74;99246.03;4909542;29;20443;-64
2023/01/28 20:48:11;;;;;;;;;;;;;;;0.06;63.44;99254.59;4911658;29;19938;-64
2023/01/28 20:50:36;;;;;;;;;;;;;;;-0.15;63.76;99241.91;4912469;29;19915;-65
2023/01/28 20:53:01;;;;;;;;;;;;;;;-0.10;64.95;99242.72;4906388;29;20334;-62
2023/01/28 20:55:27;;;;;;;;;;;;;;;-0.12;64.89;99244.44;4913482;29;19919;-65
2023/01/28 20:57:52;;;;;;;;;;;;;;;-0.10;65.00;99237.56;4907372;29;19927;-65
2023/01/28 21:00:18;;;;;;;;;;;;;;;-0.11;64.29;99235.84;4914098;29;19919;-64
2023/01/28 21:02:44;;;;;;;;;;;;;;;-0.10;62.97;99238.41;4911572;29;20001;-64
2023/01/28 21:05:09;;;;;;;;;;;;;;;-0.23;63.55;99233.38;4912249;29;20302;-64
2023/01/28 21:07:35;;;;;;;;;;;;;;;-0.31;64.61;99229.16;4910514;29;19920;-64
2023/01/28 21:10:00;;;;;;;;;;;;;;;-0.27;63.99;99228.25;4913685;29;20368;-64
2023/01/28 21:12:28;;;;;;;;;;;;;;;-0.31;63.56;99236.88;4913523;29;20463;-64
2023/01/28 21:14:54;;;;;;;;;;;;;;;-0.33;64.34;99236.03;4910870;29;20286;-64
2023/01/28 21:17:19;;;;;;;;;;;;;;;-0.40;64.55;99239.53;4913277;29;20322;-65
2023/01/28 21:19:44;;;;;;;;;;;;;;;-0.47;64.35;99237.88;4910190;29;20394;-65
2023/01/28 21:22:09;;;;;;;;;;;;;;;-0.41;63.33;99242.97;4910066;29;20383;-65
2023/01/28 21:24:34;;;;;;;;;;;;;;;-0.33;64.65;99246.34;4916570;29;19919;-64
2023/01/28 21:27:00;;;;;;;;;;;;;;;-0.34;63.62;99241.22;4909989;29;19919;-65
2023/01/28 21:29:25;;;;;;;;;;;;;;;-0.41;63.72;99232.69;4909275;29;20018;-64
2023/01/28 21:31:50;;;;;;;;;;;;;;;-0.44;63.32;99232.69;4915381;29;20018;-64
2023/01/28 21:34:16;;;;;;;;;;;;;;;-0.62;63.56;99236.28;4911603;29;20013;-65
2023/01/28 21:36:41;;;;;;;;;;;;;;;-0.70;63.16;99239.75;4910673;29;20376;-64
2023/01/28 21:39:06;;;;;;;;;;;;;;;-0.65;62.93;99238.00;4906654;29;20038;-66
2023/01/28 21:41:31;;;;;;;;;;;;;;;-0.63;63.62;99231.97;4909317;29;19927;-65
2023/01/28 21:43:57;;;;;;;;;;;;;;;-0.63;63.01;99231.97;4916187;29;19926;-64
2023/01/28 21:46:23;;;;;;;;;;;;;;;-0.59;62.79;99227.63;4917521;29;20022;-64
2023/01/28 21:48:48;;;;;;;;;;;;;;;-0.56;63.78;99232.78;4913846;29;20010;-64
2023/01/28 21:53:57;;;;;;;;;;;;;;;-0.52;62.99;99243.06;4916815;29;20005;-65
2023/01/28 21:56:22;;;;;;;;;;;;;;;-0.44;63.79;99243.00;4911329;29;19977;-65
2023/01/28 22:01:31;;;;;;;;;;;;;;;-0.45;62.24;99251.59;4912727;29;20029;-65
2023/01/28 22:03:57;;;;;;;;;;;;;;;-0.45;62.15;99254.16;4914467;29;20354;-65
2023/01/28 22:06:22;;;;;;;;;;;;;;;-0.56;62.58;99250.81;4913661;29;20042;-64
2023/01/28 22:08:47;;;;;;;;;;;;;;;-0.53;63.44;99253.38;4912596;29;19956;-63
2023/01/28 22:11:12;;;;;;;;;;;;;;;-0.59;63.16;99255.97;4916769;29;19983;-65
2023/01/28 22:13:38;;;;;;;;;;;;;;;-0.64;62.50;99247.44;4917798;29;19958;-64
2023/01/28 22:16:03;;;;;;;;;;;;;;;-0.58;62.91;99247.41;4912071;29;19994;-64
2023/01/28 22:18:29;;;;;;;;;;;;;;;-0.43;65.27;99249.88;4914810;29;20018;-64
2023/01/28 22:21:00;;;;;;;;;;;;;;;-0.49;62.63;99244.75;4914439;29;19919;-64
2023/01/28 22:23:26;;;;;;;;;;;;;;;-0.46;62.08;99237.00;4905605;29;19924;-64
2023/01/28 22:25:51;;;;;;;;;;;;;;;-0.54;61.66;99236.22;4911194;29;19920;-65
2023/01/28 22:28:16;;;;;;;;;;;;;;;-0.59;61.75;99233.66;4917780;29;20433;-64
2023/01/28 22:30:41;;;;;;;;;;;;;;;-0.72;62.64;99238.06;4902624;29;20428;-66
